Jeffersontown, Kentucky
Current Conditions -  °F | °C
As of 5:53 AM on Monday 20 Oct 2014 (Local Time) from KLOU Reporting Station
Overcast Overcast  
Wind Chill: 46°   Ceiling: 12000
Heat Index: 46°   Visibility: 10mi
Dew Point: 43°   Wind: 0mph
Humidity: 89%   Direction: NA
Pressure: 30.05"   Gusts: NA
Location:  38.19°N, 85.57°W
Report Text: KLOU 200953Z AUTO 00000KT 10SM OVC120 08/06 A3005 RMK AO2 SLP175 T00780061
Loading
Personal Weather Stations






























Interactive Weather Map
Tropical Storm Tracking
New forecast layout! Learn more

10-Day Weather Forecast

Advertisements
Track Severe Weather on mobile